createdAt,value
2023-09-15T00:01:43.312Z,11.90
2023-09-15T00:04:13.620Z,11.90
2023-09-15T00:06:42.934Z,11.90
2023-09-15T00:09:15.886Z,11.90
2023-09-15T00:11:44.636Z,12.00
2023-09-15T00:14:14.445Z,11.90
2023-09-15T00:16:45.940Z,11.90
2023-09-15T00:19:17.768Z,11.90
2023-09-15T00:21:48.549Z,11.80
2023-09-15T00:24:17.395Z,11.80
2023-09-15T00:26:45.602Z,11.80
2023-09-15T00:29:13.872Z,11.70
2023-09-15T00:31:43.656Z,11.60
2023-09-15T00:34:15.747Z,11.60
2023-09-15T00:36:46.677Z,11.60
2023-09-15T00:39:15.044Z,11.70
2023-09-15T00:41:44.505Z,11.70
2023-09-15T00:44:12.695Z,11.70
2023-09-15T00:46:43.775Z,11.70
2023-09-15T00:49:12.181Z,11.70
2023-09-15T00:51:40.630Z,11.60
2023-09-15T00:54:09.995Z,11.60
2023-09-15T00:56:38.351Z,11.50
2023-09-15T00:59:08.786Z,11.50
2023-09-15T01:01:37.221Z,11.50
2023-09-15T01:04:08.557Z,11.60
2023-09-15T01:06:40.916Z,11.60
2023-09-15T01:09:09.524Z,11.50
2023-09-15T01:11:37.718Z,11.50
2023-09-15T01:14:06.045Z,11.50
2023-09-15T01:16:39.893Z,11.40
2023-09-15T01:19:22.647Z,11.50
2023-09-15T01:22:06.914Z,11.50
2023-09-15T01:25:06.473Z,11.50
2023-09-15T01:27:56.278Z,11.50
2023-09-15T01:30:27.060Z,11.50
2023-09-15T01:32:59.865Z,11.50
2023-09-15T01:35:28.291Z,11.40
2023-09-15T01:37:56.406Z,11.30
2023-09-15T01:40:24.520Z,11.40
2023-09-15T01:42:55.377Z,11.30
2023-09-15T01:45:24.948Z,11.30
2023-09-15T01:47:53.510Z,11.30
2023-09-15T01:50:23.078Z,11.40
2023-09-15T01:52:52.138Z,11.30
2023-09-15T01:55:21.944Z,11.30
2023-09-15T01:57:50.214Z,11.30
2023-09-15T02:00:19.130Z,11.20
2023-09-15T02:02:48.662Z,11.20
2023-09-15T02:05:24.442Z,11.20
2023-09-15T02:07:53.362Z,11.20
2023-09-15T02:10:21.665Z,11.30
2023-09-15T02:12:51.743Z,11.20
2023-09-15T02:15:20.407Z,11.20
2023-09-15T02:17:51.865Z,11.10
2023-09-15T02:20:22.194Z,11.20
2023-09-15T02:22:50.825Z,11.20
2023-09-15T02:25:19.061Z,11.20
2023-09-15T02:27:47.218Z,11.10
2023-09-15T02:30:15.534Z,11.10
2023-09-15T02:32:44.633Z,11.10
2023-09-15T02:35:14.154Z,11.10
2023-09-15T02:37:42.232Z,11.10
2023-09-15T02:40:11.061Z,11.10
2023-09-15T02:42:39.185Z,11.10
2023-09-15T02:45:08.375Z,11.00
2023-09-15T02:47:36.539Z,11.00
2023-09-15T02:50:05.566Z,11.10
2023-09-15T02:52:35.203Z,11.00
2023-09-15T02:55:05.276Z,11.00
2023-09-15T02:57:33.547Z,10.90
2023-09-15T03:00:08.972Z,10.90
2023-09-15T03:02:37.670Z,11.00
2023-09-15T03:05:06.628Z,11.00
2023-09-15T03:07:40.428Z,11.00
2023-09-15T03:10:13.849Z,11.00
2023-09-15T03:12:42.140Z,11.00
2023-09-15T03:15:11.419Z,10.90
2023-09-15T03:17:39.804Z,10.90
2023-09-15T03:20:14.422Z,10.90
2023-09-15T03:22:45.032Z,10.90
2023-09-15T03:25:13.444Z,10.90
2023-09-15T03:27:41.865Z,10.90
2023-09-15T03:30:11.303Z,11.00
2023-09-15T03:32:39.702Z,10.90
2023-09-15T03:35:08.963Z,11.00
2023-09-15T03:37:37.374Z,11.00
2023-09-15T03:40:10.139Z,11.00
2023-09-15T03:42:38.568Z,10.90
2023-09-15T03:45:09.408Z,10.90
2023-09-15T03:47:37.592Z,10.90
2023-09-15T03:50:09.708Z,10.90
2023-09-15T03:52:38.402Z,10.80
2023-09-15T03:55:08.587Z,10.80
2023-09-15T03:57:37.697Z,10.90
2023-09-15T04:00:12.479Z,10.90
2023-09-15T04:02:41.400Z,10.70
2023-09-15T04:05:09.890Z,10.80
2023-09-15T04:07:38.786Z,10.70
2023-09-15T04:10:09.311Z,10.70
2023-09-15T04:12:37.663Z,10.70
2023-09-15T04:15:06.799Z,10.60
2023-09-15T04:17:34.975Z,10.50
2023-09-15T04:20:08.852Z,10.60
2023-09-15T04:22:37.630Z,10.60
2023-09-15T04:25:07.194Z,10.60
2023-09-15T04:27:37.134Z,10.60
2023-09-15T04:30:06.340Z,10.60
2023-09-15T04:32:40.578Z,10.60
2023-09-15T04:35:09.657Z,10.60
2023-09-15T04:37:38.005Z,10.60
2023-09-15T04:40:07.811Z,10.60
2023-09-15T04:42:41.229Z,10.60
2023-09-15T04:45:10.273Z,10.50
2023-09-15T04:47:41.762Z,10.50
2023-09-15T04:50:13.397Z,10.40
2023-09-15T04:52:42.671Z,10.50
2023-09-15T04:55:10.967Z,10.40
2023-09-15T04:57:40.862Z,10.40
2023-09-15T05:00:14.507Z,10.40
2023-09-15T05:02:46.208Z,10.40
2023-09-15T05:05:15.417Z,10.40
2023-09-15T05:07:43.598Z,10.40
2023-09-15T05:10:12.361Z,10.40
2023-09-15T05:12:43.234Z,10.40
2023-09-15T05:15:11.950Z,10.50
2023-09-15T05:17:42.011Z,10.40
2023-09-15T05:20:10.830Z,10.40
2023-09-15T05:22:39.231Z,10.40
2023-09-15T05:25:09.297Z,10.40
2023-09-15T05:27:37.895Z,10.50
2023-09-15T05:30:09.567Z,10.50
2023-09-15T05:32:39.861Z,10.50
2023-09-15T05:35:10.420Z,10.50
2023-09-15T05:37:38.665Z,10.50
2023-09-15T05:40:07.984Z,10.50
2023-09-15T05:42:37.453Z,10.50
2023-09-15T05:45:08.075Z,10.50
2023-09-15T05:47:36.172Z,10.50
2023-09-15T05:50:05.861Z,10.60
2023-09-15T05:52:34.472Z,10.60
2023-09-15T05:55:02.777Z,10.70
2023-09-15T05:57:30.944Z,10.70
2023-09-15T05:59:59.052Z,10.70
2023-09-15T06:02:29.799Z,10.80
2023-09-15T06:04:57.907Z,10.90
2023-09-15T06:07:26.010Z,10.90
2023-09-15T06:09:54.202Z,11.00
2023-09-15T06:12:22.286Z,11.10
2023-09-15T06:14:50.328Z,11.10
2023-09-15T06:17:18.439Z,11.20
2023-09-15T06:19:47.924Z,11.30
2023-09-15T06:22:16.023Z,11.30
2023-09-15T06:24:44.088Z,11.30
2023-09-15T06:27:12.133Z,11.30
2023-09-15T06:29:40.220Z,11.40
2023-09-15T06:32:08.452Z,11.40
2023-09-15T06:34:38.566Z,11.50
2023-09-15T06:37:09.314Z,11.60
2023-09-15T06:39:37.874Z,11.70
2023-09-15T06:42:06.649Z,11.80
2023-09-15T06:44:37.931Z,11.80
2023-09-15T06:47:06.902Z,11.90
2023-09-15T06:49:36.858Z,12.00
2023-09-15T06:52:05.536Z,12.10
2023-09-15T06:54:35.026Z,12.10
2023-09-15T06:57:03.965Z,12.10
2023-09-15T06:59:32.810Z,12.10
2023-09-15T07:02:03.740Z,12.20
2023-09-15T07:04:32.256Z,12.30
2023-09-15T07:07:00.707Z,12.30
2023-09-15T07:09:28.873Z,12.30
2023-09-15T07:11:58.638Z,12.40
2023-09-15T07:14:26.748Z,12.50
2023-09-15T07:16:54.991Z,12.60
2023-09-15T07:19:23.210Z,12.80
2023-09-15T07:21:51.286Z,12.70
2023-09-15T07:24:19.500Z,12.80
2023-09-15T07:26:48.902Z,12.90
2023-09-15T07:29:18.398Z,13.00
2023-09-15T07:31:46.596Z,13.10
2023-09-15T07:34:15.594Z,13.10
2023-09-15T07:36:44.634Z,13.20
2023-09-15T07:39:12.785Z,13.30
2023-09-15T07:41:40.873Z,13.30
2023-09-15T07:44:09.040Z,13.40
2023-09-15T07:46:38.512Z,13.50
2023-09-15T07:49:06.953Z,13.60
2023-09-15T07:51:35.049Z,13.70
2023-09-15T07:54:03.382Z,13.70
2023-09-15T07:56:32.053Z,13.80
2023-09-15T07:59:00.407Z,13.90
2023-09-15T08:01:28.692Z,14.10
2023-09-15T08:03:58.459Z,14.20
2023-09-15T08:06:28.052Z,14.20
2023-09-15T08:08:56.173Z,14.30
2023-09-15T08:11:24.357Z,14.40
2023-09-15T08:13:52.449Z,14.40
2023-09-15T08:16:20.616Z,14.50
2023-09-15T08:18:48.945Z,14.60
2023-09-15T08:21:18.351Z,14.80
2023-09-15T08:23:46.794Z,14.90
2023-09-15T08:26:15.531Z,14.90
2023-09-15T08:28:43.689Z,14.90
2023-09-15T08:31:11.833Z,15.00
2023-09-15T08:33:39.969Z,15.10
2023-09-15T08:36:08.429Z,15.20
2023-09-15T08:38:37.905Z,15.20
2023-09-15T08:41:14.212Z,15.30
2023-09-15T08:43:43.543Z,15.40
2023-09-15T08:46:13.624Z,15.50
2023-09-15T08:48:43.033Z,15.50
2023-09-15T08:51:11.686Z,15.70
2023-09-15T08:53:41.994Z,15.70
2023-09-15T08:56:10.775Z,15.80
2023-09-15T08:58:39.173Z,15.90
2023-09-15T09:01:09.417Z,15.80
2023-09-15T09:03:40.103Z,16.00
2023-09-15T09:06:11.285Z,16.00
2023-09-15T09:08:43.603Z,16.10
2023-09-15T09:11:11.902Z,16.20
2023-09-15T09:13:44.239Z,16.30
2023-09-15T09:16:15.761Z,16.30
2023-09-15T09:18:43.968Z,16.30
2023-09-15T09:21:12.099Z,16.50
2023-09-15T09:23:41.635Z,16.50
2023-09-15T09:26:13.499Z,16.40
2023-09-15T09:28:41.728Z,16.60
2023-09-15T09:31:11.221Z,16.70
2023-09-15T09:33:42.737Z,16.70
2023-09-15T09:36:17.937Z,16.70
2023-09-15T09:38:49.453Z,16.80
2023-09-15T09:41:19.365Z,16.90
2023-09-15T09:43:49.978Z,16.90
2023-09-15T09:46:20.628Z,16.90
2023-09-15T09:48:50.713Z,17.10
2023-09-15T09:51:20.196Z,17.10
2023-09-15T09:53:55.133Z,17.10
2023-09-15T09:56:24.718Z,17.20
2023-09-15T09:58:53.182Z,17.20
2023-09-15T10:01:21.567Z,17.20
2023-09-15T10:03:50.870Z,17.20
2023-09-15T10:06:19.677Z,17.30
2023-09-15T10:08:49.734Z,17.30
2023-09-15T10:11:18.822Z,17.50
2023-09-15T10:13:48.103Z,17.60
2023-09-15T10:16:16.946Z,17.70
2023-09-15T10:18:46.337Z,17.60
2023-09-15T10:21:15.600Z,17.80
2023-09-15T10:23:43.809Z,17.90
2023-09-15T10:26:13.740Z,17.90
2023-09-15T10:28:50.911Z,18.00
2023-09-15T10:31:19.522Z,18.20
2023-09-15T10:33:49.132Z,18.20
2023-09-15T10:36:18.226Z,18.20
2023-09-15T10:38:49.098Z,18.30
2023-09-15T10:41:29.685Z,18.40
2023-09-15T10:43:57.932Z,18.50
2023-09-15T10:46:37.735Z,18.40
2023-09-15T10:49:16.258Z,18.40
2023-09-15T10:51:58.056Z,18.50
2023-09-15T10:54:27.686Z,18.60
2023-09-15T10:56:57.868Z,18.60
2023-09-15T10:59:27.172Z,18.50
2023-09-15T11:01:56.408Z,18.50
2023-09-15T11:04:26.549Z,18.50
2023-09-15T11:06:55.761Z,18.50
2023-09-15T11:09:25.404Z,18.60
2023-09-15T11:11:55.914Z,18.80
2023-09-15T11:14:25.450Z,18.70
2023-09-15T11:16:57.553Z,18.60
2023-09-15T11:19:27.627Z,18.60
2023-09-15T11:21:55.847Z,18.60
2023-09-15T11:24:24.387Z,18.60
2023-09-15T11:26:54.205Z,18.80
2023-09-15T11:29:28.225Z,18.80
2023-09-15T11:31:57.618Z,18.80
2023-09-15T11:34:25.949Z,18.80
2023-09-15T11:36:59.908Z,18.90
2023-09-15T11:39:30.006Z,18.90
2023-09-15T11:41:58.487Z,19.00
2023-09-15T11:44:30.501Z,19.00
2023-09-15T11:47:00.888Z,19.00
2023-09-15T11:49:31.305Z,19.00
2023-09-15T11:52:00.240Z,19.00
2023-09-15T11:54:28.965Z,19.00
2023-09-15T11:56:57.848Z,19.00
2023-09-15T11:59:30.226Z,19.20
2023-09-15T12:02:01.061Z,19.20
2023-09-15T12:04:30.409Z,19.20
2023-09-15T12:06:59.991Z,19.30
2023-09-15T12:09:28.517Z,19.40
2023-09-15T12:11:56.789Z,19.40
2023-09-15T12:14:26.282Z,19.60
2023-09-15T12:16:59.306Z,19.70
2023-09-15T12:19:29.574Z,19.60
2023-09-15T12:22:00.522Z,19.80
2023-09-15T12:24:29.855Z,19.70
2023-09-15T12:27:00.603Z,19.70
2023-09-15T12:29:29.436Z,19.60
2023-09-15T12:31:59.164Z,19.60
2023-09-15T12:34:28.918Z,19.60
2023-09-15T12:36:57.289Z,19.60
2023-09-15T12:39:25.634Z,19.70
2023-09-15T12:42:13.754Z,19.80
2023-09-15T12:44:43.741Z,20.00
2023-09-15T12:47:13.410Z,20.30
2023-09-15T12:49:42.552Z,20.30
2023-09-15T12:52:11.644Z,20.50
2023-09-15T12:54:40.093Z,20.50
2023-09-15T12:57:08.523Z,20.40
2023-09-15T12:59:36.792Z,20.30
2023-09-15T13:02:05.245Z,20.40
2023-09-15T13:04:35.015Z,20.30
2023-09-15T13:07:03.337Z,20.30
2023-09-15T13:09:32.595Z,20.40
2023-09-15T13:12:01.443Z,20.50
2023-09-15T13:14:30.837Z,20.60
2023-09-15T13:17:01.273Z,20.70
2023-09-15T13:19:30.438Z,20.70
2023-09-15T13:22:00.140Z,20.80
2023-09-15T13:24:29.015Z,21.00
2023-09-15T13:26:57.237Z,20.90
2023-09-15T13:29:28.035Z,21.00
2023-09-15T13:31:56.400Z,21.00
2023-09-15T13:34:24.545Z,20.80
2023-09-15T13:36:54.216Z,20.70
2023-09-15T13:39:24.493Z,20.80
2023-09-15T13:41:52.824Z,20.70
2023-09-15T13:44:21.793Z,20.70
2023-09-15T13:46:49.873Z,20.80
2023-09-15T13:49:18.117Z,20.80
2023-09-15T13:51:46.269Z,20.90
2023-09-15T13:54:14.577Z,21.00
2023-09-15T13:56:44.132Z,21.00
2023-09-15T13:59:12.409Z,21.10
2023-09-15T14:01:41.321Z,21.00
2023-09-15T14:04:11.382Z,21.00
2023-09-15T14:06:41.762Z,21.10
2023-09-15T14:09:10.216Z,21.00
2023-09-15T14:11:42.720Z,20.90
2023-09-15T14:14:12.426Z,20.70
2023-09-15T14:16:42.121Z,20.90
2023-09-15T14:19:10.224Z,20.90
2023-09-15T14:21:39.128Z,21.20
2023-09-15T14:24:08.459Z,21.20
2023-09-15T14:26:36.687Z,21.10
2023-09-15T14:29:04.831Z,21.30
2023-09-15T14:31:34.502Z,21.40
2023-09-15T14:34:02.802Z,21.30
2023-09-15T14:36:31.002Z,21.40
2023-09-15T14:38:59.156Z,21.50
2023-09-15T14:41:27.204Z,21.50
2023-09-15T14:43:55.299Z,21.40
2023-09-15T14:46:23.370Z,21.40
2023-09-15T14:48:53.204Z,21.40
2023-09-15T14:51:22.652Z,21.40
2023-09-15T14:53:50.931Z,21.40
2023-09-15T14:56:19.014Z,21.30
2023-09-15T14:58:47.347Z,21.40
2023-09-15T15:01:15.627Z,21.40
2023-09-15T15:03:43.881Z,21.30
2023-09-15T15:06:15.949Z,21.40
2023-09-15T15:08:44.269Z,21.40
2023-09-15T15:11:12.632Z,21.50
2023-09-15T15:13:40.866Z,21.50
2023-09-15T15:16:11.921Z,21.50
2023-09-15T15:18:40.423Z,21.50
2023-09-15T15:21:08.544Z,21.40
2023-09-15T15:23:38.021Z,21.50
2023-09-15T15:26:06.369Z,21.50
2023-09-15T15:28:35.926Z,21.40
2023-09-15T15:31:11.032Z,21.50
2023-09-15T15:33:39.270Z,21.50
2023-09-15T15:36:08.678Z,21.30
2023-09-15T15:38:39.213Z,21.30
2023-09-15T15:41:08.394Z,21.30
2023-09-15T15:43:38.003Z,21.20
2023-09-15T15:46:09.640Z,21.30
2023-09-15T15:48:38.882Z,21.20
2023-09-15T15:51:09.102Z,21.30
2023-09-15T15:53:39.273Z,21.40
2023-09-15T15:56:07.619Z,21.30
2023-09-15T15:58:35.926Z,21.30
2023-09-15T16:01:07.825Z,21.30
2023-09-15T16:03:36.072Z,21.20
2023-09-15T16:06:04.316Z,21.20
2023-09-15T16:08:45.022Z,21.20
2023-09-15T16:11:14.560Z,21.10
2023-09-15T16:13:42.890Z,20.90
2023-09-15T16:16:10.983Z,20.90
2023-09-15T16:18:39.342Z,21.10
2023-09-15T16:21:07.584Z,21.10
2023-09-15T16:23:35.651Z,21.10
2023-09-15T16:26:04.988Z,21.20
2023-09-15T16:28:34.616Z,21.10
2023-09-15T16:31:02.815Z,21.00
2023-09-15T16:33:31.062Z,20.90
2023-09-15T16:36:04.559Z,20.80
2023-09-15T16:38:33.293Z,20.60
2023-09-15T16:41:04.659Z,20.50
2023-09-15T16:43:36.811Z,20.50
2023-09-15T16:46:05.938Z,20.40
2023-09-15T16:48:35.502Z,20.40
2023-09-15T16:51:03.671Z,20.30
2023-09-15T16:53:31.868Z,20.30
2023-09-15T16:55:59.909Z,20.20
2023-09-15T16:58:27.997Z,20.10
2023-09-15T17:00:58.261Z,20.10
2023-09-15T17:03:26.710Z,20.20
2023-09-15T17:05:55.156Z,20.20
2023-09-15T17:08:23.367Z,20.30
2023-09-15T17:10:52.323Z,20.20
2023-09-15T17:13:20.379Z,20.10
2023-09-15T17:15:49.893Z,19.90
2023-09-15T17:18:19.653Z,19.80
2023-09-15T17:20:48.008Z,19.80
2023-09-15T17:23:16.123Z,19.70
2023-09-15T17:25:44.289Z,19.70
2023-09-15T17:28:12.614Z,19.60
2023-09-15T17:30:40.820Z,19.40
2023-09-15T17:33:11.328Z,19.30
2023-09-15T17:35:42.525Z,19.20
2023-09-15T17:38:10.632Z,19.20
2023-09-15T17:40:38.948Z,19.00
2023-09-15T17:43:08.760Z,18.90
2023-09-15T17:45:37.123Z,18.90
2023-09-15T17:48:05.905Z,18.80
2023-09-15T17:50:34.097Z,18.70
2023-09-15T17:53:03.600Z,18.60
2023-09-15T17:55:32.538Z,18.50
2023-09-15T17:58:00.621Z,18.40
2023-09-15T18:00:29.660Z,18.30
2023-09-15T18:02:59.988Z,18.30
2023-09-15T18:05:28.511Z,18.20
2023-09-15T18:07:56.820Z,18.00
2023-09-15T18:10:26.514Z,18.00
2023-09-15T18:12:54.985Z,18.00
2023-09-15T18:15:23.338Z,18.00
2023-09-15T18:17:51.574Z,17.90
2023-09-15T18:20:19.933Z,17.90
2023-09-15T18:22:48.009Z,17.70
2023-09-15T18:25:17.151Z,17.60
2023-09-15T18:27:46.906Z,17.50
2023-09-15T18:30:15.874Z,17.40
2023-09-15T18:32:44.396Z,17.30
2023-09-15T18:35:12.545Z,17.40
2023-09-15T18:37:40.807Z,17.40
2023-09-15T18:40:09.839Z,17.40
2023-09-15T18:42:38.984Z,17.30
2023-09-15T18:45:09.983Z,17.20
2023-09-15T18:47:38.136Z,17.20
2023-09-15T18:50:07.406Z,17.20
2023-09-15T18:52:35.602Z,17.20
2023-09-15T18:55:04.359Z,17.20
2023-09-15T18:57:32.770Z,17.10
2023-09-15T19:00:07.197Z,17.00
2023-09-15T19:02:38.485Z,17.00
2023-09-15T19:05:08.978Z,16.90
2023-09-15T19:07:37.485Z,16.80
2023-09-15T19:10:06.789Z,16.70
2023-09-15T19:12:34.924Z,16.70
2023-09-15T19:15:03.308Z,16.60
2023-09-15T19:17:33.221Z,16.50
2023-09-15T19:20:03.484Z,16.50
2023-09-15T19:22:33.238Z,16.40
2023-09-15T19:25:01.399Z,16.40
2023-09-15T19:27:29.517Z,16.50
2023-09-15T19:29:59.872Z,16.50
2023-09-15T19:32:29.359Z,16.50
2023-09-15T19:34:57.759Z,16.50
2023-09-15T19:37:27.663Z,16.40
2023-09-15T19:39:55.872Z,16.40
2023-09-15T19:42:24.917Z,16.30
2023-09-15T19:44:55.912Z,16.30
2023-09-15T19:47:24.483Z,16.30
2023-09-15T19:49:52.589Z,16.40
2023-09-15T19:52:20.790Z,16.40
2023-09-15T19:54:51.065Z,16.30
2023-09-15T19:57:19.277Z,16.30
2023-09-15T19:59:47.415Z,16.30
2023-09-15T20:02:16.204Z,16.30
2023-09-15T20:04:44.367Z,16.30
2023-09-15T20:07:12.651Z,16.10
2023-09-15T20:09:40.793Z,16.10
2023-09-15T20:12:10.964Z,16.10
2023-09-15T20:14:40.590Z,16.00
2023-09-15T20:17:08.710Z,16.00
2023-09-15T20:19:42.377Z,16.00
2023-09-15T20:22:10.568Z,16.20
2023-09-15T20:24:39.304Z,16.20
2023-09-15T20:27:07.392Z,16.20
2023-09-15T20:29:36.924Z,16.20
2023-09-15T20:32:05.666Z,16.10
2023-09-15T20:34:33.812Z,16.10
2023-09-15T20:37:01.981Z,16.00
2023-09-15T20:39:30.217Z,16.00
2023-09-15T20:41:58.365Z,16.00
2023-09-15T20:44:27.241Z,16.00
2023-09-15T20:46:57.039Z,15.90
2023-09-15T20:49:27.386Z,15.90
2023-09-15T20:51:55.709Z,15.80
2023-09-15T20:54:24.015Z,15.90
2023-09-15T20:56:52.121Z,15.90
2023-09-15T20:59:20.268Z,15.90
2023-09-15T21:01:50.119Z,15.90
2023-09-15T21:04:21.192Z,15.80
2023-09-15T21:06:49.791Z,15.80
2023-09-15T21:09:18.677Z,15.80
2023-09-15T21:11:47.589Z,15.80
2023-09-15T21:14:15.798Z,15.80
2023-09-15T21:16:44.093Z,15.70
2023-09-15T21:19:13.635Z,15.60
2023-09-15T21:21:43.179Z,15.60
2023-09-15T21:24:11.312Z,15.70
2023-09-15T21:26:39.987Z,15.70
2023-09-15T21:29:08.291Z,15.70
2023-09-15T21:31:36.398Z,15.70
2023-09-15T21:34:04.560Z,15.50
2023-09-15T21:36:32.764Z,15.50
2023-09-15T21:39:02.308Z,15.50
2023-09-15T21:41:30.479Z,15.50
2023-09-15T21:43:58.615Z,15.50
2023-09-15T21:46:26.714Z,15.50
2023-09-15T21:48:55.085Z,15.50
2023-09-15T21:51:23.281Z,15.40
2023-09-15T21:53:51.369Z,15.40
2023-09-15T21:56:20.887Z,15.40
2023-09-15T21:58:50.378Z,15.40
2023-09-15T22:01:19.222Z,15.40
2023-09-15T22:03:48.759Z,15.50
2023-09-15T22:06:17.160Z,15.40
2023-09-15T22:08:45.241Z,15.40
2023-09-15T22:11:13.600Z,15.40
2023-09-15T22:13:44.468Z,15.40
2023-09-15T22:16:12.794Z,15.40
2023-09-15T22:18:41.049Z,15.40
2023-09-15T22:21:10.301Z,15.30
2023-09-15T22:23:38.532Z,15.40
2023-09-15T22:26:07.931Z,15.30
2023-09-15T22:28:36.163Z,15.30
2023-09-15T22:31:06.406Z,15.30
2023-09-15T22:33:36.597Z,15.20
2023-09-15T22:36:07.696Z,15.20
2023-09-15T22:38:37.272Z,15.20
2023-09-15T22:43:37.640Z,15.20
2023-09-15T22:46:15.745Z,15.20
2023-09-15T22:48:47.570Z,15.20
2023-09-15T22:51:16.371Z,15.20
2023-09-15T22:53:45.447Z,15.20
2023-09-15T22:56:13.731Z,15.20
2023-09-15T22:58:44.042Z,15.10
2023-09-15T23:01:14.247Z,15.20
2023-09-15T23:03:42.659Z,15.20
2023-09-15T23:06:10.782Z,15.10
2023-09-15T23:08:38.860Z,15.10
2023-09-15T23:11:07.099Z,15.10
2023-09-15T23:13:35.425Z,15.00
2023-09-15T23:16:08.324Z,15.00
2023-09-15T23:18:38.547Z,15.10
2023-09-15T23:21:07.029Z,15.00
2023-09-15T23:23:35.653Z,15.10
2023-09-15T23:26:03.823Z,15.10
2023-09-15T23:28:31.905Z,15.10
2023-09-15T23:31:00.122Z,15.00
2023-09-15T23:33:29.874Z,15.00
2023-09-15T23:36:06.999Z,15.00
2023-09-15T23:38:35.521Z,15.00
2023-09-15T23:41:04.018Z,14.90
2023-09-15T23:43:33.051Z,15.00
2023-09-15T23:46:01.163Z,14.90
2023-09-15T23:48:34.583Z,14.90
2023-09-15T23:51:04.471Z,14.90
2023-09-15T23:53:32.546Z,14.90
2023-09-15T23:56:00.613Z,14.90
2023-09-15T23:58:30.342Z,14.90
